Time;durP1;ratioP1;P1;durP2;ratioP2;P2;SDS_P1;SDS_P2;PMS_P1;PMS_P2;Temp;Humidity;BMP_temperature;BMP_pressure;BME280_temperature;BME280_humidity;BME280_pressure;Samples;Min_cycle;Max_cycle;Signal;HPM_P1;HPM_P2
2023/10/08 00:03:33;;;;;;;10.73;3.53;;;17.20;32.50;;;;;;6245875;28;20057;-78
2023/10/08 00:06:35;;;;;;;12.15;3.65;;;17.20;32.50;;;;;;6293856;28;20105;-78
2023/10/08 00:09:37;;;;;;;12.07;3.72;;;17.10;31.40;;;;;;6270459;28;20518;-78
2023/10/08 00:12:38;;;;;;;12.00;3.45;;;17.10;32.10;;;;;;6291391;28;20052;-78
2023/10/08 00:15:49;;;;;;;9.38;3.50;;;17.10;31.30;;;;;;6263753;28;20056;-77
2023/10/08 00:18:51;;;;;;;9.75;3.75;;;17.10;29.60;;;;;;6245262;28;20045;-77
2023/10/08 00:21:54;;;;;;;10.15;3.13;;;16.90;41.50;;;;;;6293534;28;20518;-75
2023/10/08 00:24:58;;;;;;;10.98;3.90;;;17.00;29.90;;;;;;6270302;28;20129;-76
2023/10/08 00:28:01;;;;;;;8.90;3.30;;;17.00;30.20;;;;;;6282893;28;20119;-76
2023/10/08 00:31:12;;;;;;;7.75;3.47;;;17.30;45.20;;;;;;6266250;28;20060;-76
2023/10/08 00:34:13;;;;;;;9.25;3.70;;;16.90;30.50;;;;;;6244727;28;20065;-76
2023/10/08 00:37:15;;;;;;;10.82;3.42;;;16.90;30.00;;;;;;6292916;28;20053;-76
2023/10/08 00:40:21;;;;;;;7.13;3.55;;;17.00;30.20;;;;;;6269585;28;20052;-76
2023/10/08 00:43:24;;;;;;;9.27;3.40;;;16.90;28.60;;;;;;6258489;28;20049;-76
2023/10/08 00:46:30;;;;;;;10.50;3.65;;;16.90;29.10;;;;;;6269244;28;20053;-76
2023/10/08 00:52:40;;;;;;;13.10;3.50;;;16.80;28.70;;;;;;6292694;28;20064;-76
2023/10/08 00:55:50;;;;;;;12.20;3.45;;;16.80;28.80;;;;;;6268080;28;20053;-76
2023/10/08 00:58:53;;;;;;;10.95;3.40;;;16.50;35.60;;;;;;6264899;28;20056;-76
2023/10/08 01:02:07;;;;;;;9.02;3.17;;;16.80;43.40;;;;;;6268906;28;20497;-75
2023/10/08 01:05:11;;;;;;;8.80;3.35;;;16.80;29.80;;;;;;6243963;28;20081;-75
2023/10/08 01:08:14;;;;;;;9.40;3.42;;;16.80;27.00;;;;;;6292900;28;20113;-75
2023/10/08 01:11:16;;;;;;;10.82;3.15;;;16.80;28.00;;;;;;6268685;28;20061;-77
2023/10/08 01:14:25;;;;;;;7.45;3.20;;;16.80;27.10;;;;;;6271288;28;20056;-77
2023/10/08 01:17:32;;;;;;;8.73;3.20;;;16.80;27.10;;;;;;6243897;28;20136;-75
2023/10/08 01:20:34;;;;;;;8.45;3.25;;;16.80;28.20;;;;;;6243999;28;20120;-75
2023/10/08 01:23:38;;;;;;;11.65;3.65;;;16.80;27.90;;;;;;6292547;28;20052;-76
2023/10/08 01:26:41;;;;;;;8.07;3.40;;;;;;;;;;6268694;28;20048;-76
2023/10/08 01:29:44;;;;;;;8.27;3.03;;;16.80;26.80;;;;;;6281165;28;20054;-75
2023/10/08 01:32:46;;;;;;;8.10;3.35;;;16.90;27.10;;;;;;6268383;28;20053;-75
2023/10/08 01:35:51;;;;;;;11.07;3.20;;;16.90;27.20;;;;;;6292628;28;20048;-76
2023/10/08 01:38:54;;;;;;;11.07;3.22;;;16.90;26.30;;;;;;6268782;28;20139;-75
2023/10/08 01:41:56;;;;;;;8.02;2.95;;;16.90;27.00;;;;;;6292618;28;20071;-76
2023/10/08 01:44:57;;;;;;;8.30;3.10;;;16.90;26.00;;;;;;6263184;28;20053;-75
2023/10/08 01:48:00;;;;;;;8.85;3.60;;;16.90;26.60;;;;;;6292228;28;20131;-76
2023/10/08 01:51:04;;;;;;;8.68;3.25;;;16.90;25.60;;;;;;6268518;28;20049;-76
2023/10/08 01:54:10;;;;;;;9.48;3.45;;;16.90;26.40;;;;;;6292719;28;20059;-75
2023/10/08 01:57:13;;;;;;;8.70;3.05;;;16.90;28.20;;;;;;6243784;28;20053;-75
2023/10/08 02:00:18;;;;;;;10.75;3.72;;;17.80;35.30;;;;;;6287201;28;20049;-77
2023/10/08 02:03:22;;;;;;;8.63;3.58;;;16.80;25.90;;;;;;6267526;28;20056;-77
2023/10/08 02:06:24;;;;;;;7.32;2.95;;;17.10;37.80;;;;;;6283322;28;20167;-77
2023/10/08 02:09:26;;;;;;;9.45;3.63;;;16.80;28.60;;;;;;6267969;28;20056;-77
2023/10/08 02:12:28;;;;;;;10.45;3.38;;;16.70;35.70;;;;;;6290909;28;20131;-77
2023/10/08 02:15:30;;;;;;;8.73;3.13;;;16.70;28.70;;;;;;6264412;28;20059;-77
2023/10/08 02:18:32;;;;;;;9.38;3.33;;;16.70;29.80;;;;;;6243343;28;20057;-77
2023/10/08 02:21:36;;;;;;;7.47;3.25;;;16.60;30.50;;;;;;6290588;28;20064;-77
2023/10/08 02:24:39;;;;;;;9.20;3.10;;;16.60;31.20;;;;;;6267897;28;20064;-78
2023/10/08 02:27:41;;;;;;;11.88;3.70;;;16.60;65.00;;;;;;6287954;28;20555;-75
2023/10/08 02:30:43;;;;;;;9.15;3.10;;;16.50;30.70;;;;;;6279635;28;20769;-76
2023/10/08 02:33:45;;;;;;;11.13;2.95;;;16.50;30.80;;;;;;6267878;28;20532;-75
2023/10/08 02:36:47;;;;;;;10.40;3.17;;;16.50;30.80;;;;;;6291799;28;20055;-78
2023/10/08 02:39:49;;;;;;;8.88;3.00;;;16.50;30.60;;;;;;6272076;28;20044;-76
2023/10/08 02:42:50;;;;;;;7.50;3.20;;;16.50;31.80;;;;;;6291655;28;20052;-76
2023/10/08 02:45:53;;;;;;;9.23;3.45;;;16.60;67.40;;;;;;6271700;28;20424;-76
2023/10/08 02:48:55;;;;;;;8.07;3.05;;;16.30;45.30;;;;;;6295016;28;20063;-76
2023/10/08 02:51:58;;;;;;;6.18;3.00;;;16.30;31.60;;;;;;6272214;28;20052;-76
2023/10/08 02:55:03;;;;;;;8.15;3.40;;;16.20;31.60;;;;;;6246903;28;20053;-76
2023/10/08 02:58:06;;;;;;;7.70;3.22;;;16.20;54.90;;;;;;6289470;28;20064;-75
2023/10/08 03:01:12;;;;;;;6.82;2.85;;;16.20;32.60;;;;;;6271606;28;20067;-75
2023/10/08 03:04:20;;;;;;;7.72;2.88;;;16.00;34.60;;;;;;6246960;28;20516;-75
2023/10/08 03:07:22;;;;;;;7.97;3.42;;;16.10;32.90;;;;;;6259755;28;20164;-75
2023/10/08 03:10:32;;;;;;;8.95;4.00;;;16.10;32.50;;;;;;6295742;28;20055;-75
2023/10/08 03:13:38;;;;;;;11.27;3.40;;;16.00;36.10;;;;;;6261642;28;20408;-77
2023/10/08 03:16:41;;;;;;;9.25;3.22;;;15.90;35.50;;;;;;6246681;28;20053;-77
2023/10/08 03:19:44;;;;;;;11.05;3.88;;;15.80;35.40;;;;;;6294905;28;20131;-77
2023/10/08 03:22:46;;;;;;;11.98;3.60;;;15.70;38.10;;;;;;6271102;28;20060;-77
2023/10/08 03:25:48;;;;;;;9.73;3.40;;;15.70;38.00;;;;;;6295249;28;20174;-78
2023/10/08 03:28:57;;;;;;;9.88;4.35;;;15.60;37.20;;;;;;6280112;28;20048;-77
2023/10/08 03:31:59;;;;;;;11.32;3.70;;;15.60;38.90;;;;;;6246572;28;20160;-77
2023/10/08 03:35:00;;;;;;;7.75;3.00;;;15.40;40.20;;;;;;6294508;28;20056;-77
2023/10/08 03:38:21;;;;;;;8.43;3.20;;;15.30;42.70;;;;;;6271279;28;20060;-77
2023/10/08 03:41:27;;;;;;;10.57;3.28;;;15.20;45.10;;;;;;6245894;28;20409;-77
2023/10/08 03:44:30;;;;;;;7.97;3.72;;;15.20;45.00;;;;;;6238243;28;20060;-77
2023/10/08 03:47:32;;;;;;;7.95;3.17;;;15.10;46.70;;;;;;6294257;28;20153;-76
2023/10/08 03:50:41;;;;;;;9.10;3.33;;;15.00;48.00;;;;;;6270679;28;20098;-76
2023/10/08 03:53:58;;;;;;;10.77;4.28;;;15.00;48.30;;;;;;6245709;28;20118;-76
2023/10/08 03:57:00;;;;;;;10.77;4.38;;;15.00;50.00;;;;;;6245793;28;20060;-76
2023/10/08 04:00:06;;;;;;;11.63;4.22;;;14.90;54.40;;;;;;6281010;28;20045;-77
2023/10/08 04:03:11;;;;;;;9.05;4.07;;;14.90;53.00;;;;;;6270777;28;20061;-76
2023/10/08 04:06:16;;;;;;;9.73;3.75;;;14.80;52.70;;;;;;6287454;28;20049;-77
2023/10/08 04:09:23;;;;;;;14.00;4.13;;;14.80;55.00;;;;;;6270226;28;20053;-77
2023/10/08 04:12:27;;;;;;;8.20;3.97;;;14.80;54.50;;;;;;6245090;28;20489;-77
2023/10/08 04:15:28;;;;;;;9.57;3.55;;;14.80;55.30;;;;;;6292962;28;20055;-77
2023/10/08 04:18:30;;;;;;;12.00;4.15;;;14.80;56.50;;;;;;6245160;28;20061;-77
2023/10/08 04:21:33;;;;;;;10.57;3.65;;;14.80;55.30;;;;;;6293467;28;20056;-77
2023/10/08 04:24:35;;;;;;;10.60;3.67;;;14.90;55.40;;;;;;6269887;28;20519;-77
2023/10/08 04:27:37;;;;;;;9.52;3.70;;;15.00;56.20;;;;;;6291502;28;20522;-76
2023/10/08 04:30:41;;;;;;;9.52;3.33;;;15.00;53.60;;;;;;6277460;28;20052;-75
2023/10/08 04:33:42;;;;;;;9.50;3.33;;;15.00;55.70;;;;;;6269925;28;20052;-75
2023/10/08 04:36:53;;;;;;;10.75;3.97;;;15.00;54.50;;;;;;6292376;28;20056;-78
2023/10/08 04:39:59;;;;;;;9.35;3.35;;;15.10;53.50;;;;;;6245329;28;20063;-76
2023/10/08 04:46:21;;;;;;;9.52;4.28;;;15.00;52.60;;;;;;6194329;28;20050;-78
2023/10/08 04:49:27;;;;;;;;;;;15.00;52.00;;;;;;6187091;28;20106;-78
2023/10/08 04:52:29;;;;;;;13.48;4.22;;;14.90;53.20;;;;;;6219633;28;19925;-77
2023/10/08 04:55:31;;;;;;;8.77;3.08;;;14.90;54.70;;;;;;6218228;28;20064;-77
2023/10/08 04:58:33;;;;;;;9.55;3.55;;;14.90;55.40;;;;;;6217882;28;20092;-78
2023/10/08 05:01:40;;;;;;;10.43;3.97;;;14.80;55.40;;;;;;6219556;28;20066;-78
2023/10/08 05:08:17;;;;;;;10.30;3.63;;;14.90;55.40;;;;;;6171912;28;20062;-79
2023/10/08 05:11:36;;;;;;;8.88;3.70;;;14.80;55.30;;;;;;6219777;28;20053;-79
2023/10/08 05:14:55;;;;;;;8.82;3.78;;;14.90;55.50;;;;;;6164341;28;20054;-77
2023/10/08 05:18:08;;;;;;;8.80;3.40;;;14.80;54.50;;;;;;6219779;28;20072;-78
2023/10/08 05:21:25;;;;;;;11.95;3.97;;;14.80;58.10;;;;;;6169666;28;20474;-78
2023/10/08 05:24:37;;;;;;;10.00;3.40;;;14.90;56.10;;;;;;6218652;28;20054;-78
2023/10/08 05:30:55;;;;;;;10.27;4.05;;;14.80;55.40;;;;;;6219214;28;20413;-76
2023/10/08 05:34:14;;;;;;;9.20;3.50;;;14.80;55.30;;;;;;6172171;28;20050;-78
2023/10/08 05:37:31;;;;;;;8.38;3.53;;;14.70;55.20;;;;;;6171316;28;20081;-78
2023/10/08 05:44:13;;;;;;;10.00;3.50;;;14.50;60.20;;;;;;6208572;28;20046;-78
2023/10/08 05:50:39;;;;;;;11.60;3.40;;;14.40;62.10;;;;;;6218390;28;20162;-78
2023/10/08 05:53:44;;;;;;;8.93;3.28;;;14.40;62.20;;;;;;6217473;28;20058;-78
2023/10/08 05:57:06;;;;;;;9.93;3.47;;;14.30;60.80;;;;;;6217644;28;20046;-78
2023/10/08 06:03:31;;;;;;;8.82;3.38;;;14.20;63.60;;;;;;6217754;28;20430;-78
2023/10/08 06:06:43;;;;;;;7.70;3.15;;;14.10;63.40;;;;;;6170708;28;20134;-78
2023/10/08 06:10:01;;;;;;;11.57;3.47;;;14.00;63.90;;;;;;6170685;28;20058;-78
2023/10/08 06:13:06;;;;;;;6.97;3.30;;;14.00;65.60;;;;;;6177370;28;20049;-78
2023/10/08 06:16:08;;;;;;;8.27;3.17;;;14.10;65.70;;;;;;6223565;28;20517;-78
2023/10/08 06:19:10;;;;;;;10.55;3.50;;;14.10;65.70;;;;;;6223397;28;20132;-78
2023/10/08 06:22:12;;;;;;;8.95;3.33;;;14.20;64.50;;;;;;6222973;28;20054;-79
2023/10/08 06:25:18;;;;;;;9.90;3.60;;;14.20;65.10;;;;;;6223091;28;20056;-79
2023/10/08 06:28:20;;;;;;;9.52;3.53;;;14.30;64.50;;;;;;6219442;28;20145;-79
2023/10/08 06:31:24;;;;;;;9.13;3.10;;;14.20;62.80;;;;;;6223133;28;20054;-78
2023/10/08 06:34:27;;;;;;;9.60;3.42;;;14.40;62.40;;;;;;6223128;28;20136;-78
2023/10/08 06:37:33;;;;;;;8.52;3.60;;;14.50;62.50;;;;;;6222921;28;20057;-78
2023/10/08 06:43:37;;;;;;;7.43;2.80;;;14.70;60.10;;;;;;6213381;28;20441;-78
2023/10/08 06:46:39;;;;;;;8.35;2.97;;;14.80;58.70;;;;;;6236916;28;20053;-78
2023/10/08 06:49:41;;;;;;;11.10;3.50;;;14.90;57.30;;;;;;6222964;28;20058;-78
2023/10/08 06:52:43;;;;;;;12.43;3.80;;;14.90;55.80;;;;;;6222256;28;20054;-78
2023/10/08 06:55:47;;;;;;;6.20;2.67;;;15.00;56.60;;;;;;6222218;28;20060;-78
2023/10/08 06:58:49;;;;;;;10.57;3.15;;;15.10;55.70;;;;;;6217766;28;20137;-78
2023/10/08 07:01:51;;;;;;;10.73;3.78;;;15.10;55.80;;;;;;6222562;28;20050;-78
2023/10/08 07:04:53;;;;;;;9.27;3.50;;;15.20;55.20;;;;;;6222138;28;20046;-77
2023/10/08 07:07:55;;;;;;;11.57;3.00;;;15.20;53.20;;;;;;6222167;28;20564;-77
2023/10/08 07:10:56;;;;;;;15.50;3.08;;;15.30;51.80;;;;;;6222110;28;20570;-77
2023/10/08 07:13:58;;;;;;;11.20;2.85;;;15.40;50.70;;;;;;6218532;28;20057;-79
2023/10/08 07:17:05;;;;;;;10.63;3.00;;;15.50;50.60;;;;;;6222019;28;20137;-79
2023/10/08 07:20:13;;;;;;;13.55;3.17;;;15.50;50.10;;;;;;6220508;28;20325;-79
2023/10/08 07:23:19;;;;;;;11.48;3.00;;;15.70;51.00;;;;;;6173336;28;20141;-78
2023/10/08 07:26:23;;;;;;;12.75;2.80;;;15.80;49.70;;;;;;6173493;28;20169;-78
2023/10/08 07:29:25;;;;;;;9.25;3.38;;;16.00;50.40;;;;;;6216453;28;20144;-78
2023/10/08 07:32:27;;;;;;;10.43;3.42;;;16.10;48.20;;;;;;6221637;28;20060;-79
2023/10/08 07:35:30;;;;;;;8.10;3.00;;;16.40;46.70;;;;;;6221600;28;20592;-79
2023/10/08 07:38:32;;;;;;;13.20;3.10;;;16.60;47.80;;;;;;6221476;28;20056;-80
2023/10/08 07:41:34;;;;;;;11.13;3.70;;;17.00;44.30;;;;;;6221352;28;20490;-79
2023/10/08 07:44:36;;;;;;;11.68;4.10;;;17.40;41.80;;;;;;6215717;28;20070;-80
2023/10/08 07:47:38;;;;;;;17.60;2.83;;;17.70;42.90;;;;;;6219842;28;20417;-79
2023/10/08 07:50:39;;;;;;;8.57;2.95;;;18.00;39.70;;;;;;6220716;28;20045;-80
2023/10/08 07:53:42;;;;;;;6.38;2.22;;;18.50;37.80;;;;;;6221243;28;20141;-77
2023/10/08 07:56:43;;;;;;;72.03;5.57;;;18.90;32.60;;;;;;6221201;28;20571;-78
2023/10/08 07:59:48;;;;;;;17.38;3.50;;;19.50;30.80;;;;;;6213081;28;20153;-79
2023/10/08 08:02:52;;;;;;;11.15;3.20;;;19.90;25.00;;;;;;6221373;28;20053;-78
2023/10/08 08:05:54;;;;;;;8.13;2.72;;;20.10;17.70;;;;;;6220698;28;20058;-81
2023/10/08 08:08:56;;;;;;;9.20;2.78;;;20.50;1.40;;;;;;6220873;28;20565;-80
2023/10/08 08:11:57;;;;;;;5.68;2.70;;;20.70;1.00;;;;;;6220822;28;20490;-79
2023/10/08 08:14:59;;;;;;;12.30;4.03;;;21.00;1.00;;;;;;6213431;28;20057;-79
2023/10/08 08:18:05;;;;;;;9.98;3.53;;;21.10;1.00;;;;;;6220270;28;20057;-79
2023/10/08 08:21:07;;;;;;;6.65;2.67;;;21.10;1.00;;;;;;6220830;28;20089;-79
2023/10/08 08:24:09;;;;;;;11.57;3.28;;;20.90;1.00;;;;;;6220723;28;20200;-80
2023/10/08 08:27:23;;;;;;;7.18;2.63;;;20.80;1.00;;;;;;6219023;28;20054;-80
2023/10/08 08:30:26;;;;;;;9.50;3.00;;;20.90;1.00;;;;;;6168937;28;20062;-80
2023/10/08 08:33:46;;;;;;;6.78;2.80;;;21.50;1.00;;;;;;6172361;28;20051;-79
2023/10/08 08:36:49;;;;;;;10.13;3.47;;;22.00;1.00;;;;;;6220030;28;20403;-80
2023/10/08 08:39:51;;;;;;;5.47;2.85;;;22.70;1.00;;;;;;6220612;28;20529;-80
2023/10/08 08:42:54;;;;;;;8.57;2.97;;;23.30;1.00;;;;;;6216314;28;20472;-80
2023/10/08 08:45:56;;;;;;;7.18;2.90;;;23.90;1.00;;;;;;6196084;28;20101;-80
2023/10/08 08:48:58;;;;;;;8.25;3.13;;;24.20;1.00;;;;;;6219628;28;20513;-80
2023/10/08 08:52:00;;;;;;;9.80;3.10;;;24.60;1.00;;;;;;6219305;28;20058;-80
2023/10/08 08:55:06;;;;;;;6.90;3.22;;;24.60;1.00;;;;;;6220760;28;20428;-80
2023/10/08 08:58:11;;;;;;;9.30;2.83;;;24.80;1.00;;;;;;6181013;28;20056;-80
2023/10/08 09:01:13;;;;;;;12.70;3.33;;;24.80;1.00;;;;;;6225137;28;20057;-80
2023/10/08 09:04:16;;;;;;;8.05;3.17;;;25.10;1.00;;;;;;6232711;28;20060;-80
2023/10/08 09:07:18;;;;;;;8.95;3.05;;;25.20;1.00;;;;;;6242035;28;20054;-80
2023/10/08 09:10:20;;;;;;;7.00;2.92;;;25.30;1.00;;;;;;6231027;28;20452;-80
2023/10/08 09:13:27;;;;;;;7.90;3.45;;;25.30;1.00;;;;;;6197487;28;20060;-80
2023/10/08 09:16:28;;;;;;;11.10;2.90;;;25.60;1.00;;;;;;6224532;28;20064;-80
2023/10/08 09:19:30;;;;;;;9.02;3.33;;;25.80;1.00;;;;;;6221276;28;20193;-80
2023/10/08 09:22:32;;;;;;;8.63;2.80;;;25.90;1.00;;;;;;6218571;28;20065;-80
2023/10/08 09:25:33;;;;;;;6.78;2.90;;;25.70;1.00;;;;;;6219749;28;20056;-80
2023/10/08 09:28:38;;;;;;;8.85;3.25;;;25.80;1.00;;;;;;6214470;28;20058;-80
2023/10/08 09:31:40;;;;;;;6.88;2.78;;;25.70;1.00;;;;;;6219705;28;20199;-80
2023/10/08 09:34:42;;;;;;;6.40;2.80;;;25.90;1.00;;;;;;6219455;28;20451;-80
2023/10/08 09:37:43;;;;;;;14.88;3.53;;;26.30;1.00;;;;;;6219008;28;20063;-80
2023/10/08 09:40:45;;;;;;;8.05;2.70;;;26.70;1.00;;;;;;6219191;28;20058;-80
2023/10/08 09:43:47;;;;;;;12.85;2.88;;;26.90;1.00;;;;;;6210835;28;20054;-80
2023/10/08 09:46:49;;;;;;;5.88;2.75;;;27.10;1.00;;;;;;6219520;28;20053;-80
2023/10/08 09:49:50;;;;;;;6.82;3.25;;;27.70;1.00;;;;;;6223999;28;20050;-81
2023/10/08 09:52:52;;;;;;;8.13;3.00;;;27.70;1.00;;;;;;6224076;28;20069;-81
2023/10/08 09:55:54;;;;;;;11.77;3.45;;;27.80;1.00;;;;;;6223882;28;20054;-82
2023/10/08 09:58:55;;;;;;;5.50;2.60;;;27.80;1.00;;;;;;6223616;28;20104;-81
2023/10/08 10:01:59;;;;;;;8.65;3.10;;;27.90;1.00;;;;;;6223378;28;20425;-81
2023/10/08 10:05:00;;;;;;;10.15;3.20;;;28.10;1.00;;;;;;6225105;28;20050;-81
2023/10/08 10:08:05;;;;;;;9.93;2.80;;;27.90;1.00;;;;;;6222369;28;20061;-81
2023/10/08 10:11:07;;;;;;;6.63;3.15;;;27.90;1.00;;;;;;6223721;28;20054;-81
2023/10/08 10:14:10;;;;;;;9.98;3.78;;;28.00;1.00;;;;;;6220259;28;20469;-81
2023/10/08 10:17:12;;;;;;;9.68;3.28;;;28.40;1.00;;;;;;6222904;28;20219;-82
2023/10/08 10:20:28;;;;;;;7.22;3.05;;;28.50;1.00;;;;;;6173789;28;20062;-81
2023/10/08 10:23:30;;;;;;;6.95;3.20;;;28.70;1.00;;;;;;6222068;28;20143;-81
2023/10/08 10:26:33;;;;;;;12.55;3.10;;;28.60;1.00;;;;;;6222102;28;20054;-80
2023/10/08 10:29:35;;;;;;;7.63;3.03;;;28.70;1.00;;;;;;6218130;28;20586;-81
2023/10/08 10:32:37;;;;;;;10.45;3.53;;;29.20;1.00;;;;;;6223032;28;20097;-81
2023/10/08 10:35:40;;;;;;;11.32;4.28;;;29.50;1.00;;;;;;6222653;28;20399;-81
2023/10/08 10:38:42;;;;;;;8.30;3.13;;;30.10;1.00;;;;;;6223488;28;20045;-81
2023/10/08 10:41:44;;;;;;;23.23;3.97;;;30.60;1.00;;;;;;6223164;28;20057;-78
2023/10/08 10:44:49;;;;;;;7.32;3.17;;;31.20;1.00;;;;;;6218211;28;20132;-81
2023/10/08 10:47:50;;;;;;;34.97;4.45;;;31.00;1.00;;;;;;6223066;28;20119;-79
2023/10/08 10:54:19;;;;;;;8.95;3.30;;;30.90;1.00;;;;;;6174397;28;20136;-80
2023/10/08 10:57:26;;;;;;;8.23;3.25;;;30.90;1.00;;;;;;6237246;28;20184;-79
2023/10/08 11:03:36;;;;;;;11.43;3.50;;;31.20;1.00;;;;;;6174473;28;20055;-81
2023/10/08 11:06:38;;;;;;;12.05;3.30;;;31.60;1.00;;;;;;6236265;28;20050;-80
2023/10/08 11:09:44;;;;;;;6.28;2.72;;;31.40;1.00;;;;;;6222383;28;20046;-80
2023/10/08 11:12:52;;;;;;;9.85;3.22;;;31.50;1.00;;;;;;6181175;28;20398;-81
2023/10/08 11:15:54;;;;;;;8.20;3.15;;;31.90;1.00;;;;;;6222881;28;20053;-80
2023/10/08 11:19:00;;;;;;;6.82;3.45;;;31.80;1.00;;;;;;6222410;28;20054;-81
2023/10/08 11:22:02;;;;;;;7.77;3.60;;;32.00;1.00;;;;;;6173251;28;20430;-81
2023/10/08 11:25:05;;;;;;;59.45;6.35;;;32.20;1.00;;;;;;6220686;28;20420;-80
2023/10/08 11:28:11;;;;;;;7.82;3.20;;;32.00;1.00;;;;;;6216043;28;20049;-80
2023/10/08 11:31:14;;;;;;;7.38;3.38;;;32.10;1.00;;;;;;6222258;28;20054;-80
2023/10/08 11:34:19;;;;;;;6.88;3.30;;;32.00;1.00;;;;;;6221596;28;20064;-81
2023/10/08 11:37:21;;;;;;;7.75;3.08;;;31.90;1.00;;;;;;6173469;28;20054;-80
2023/10/08 11:40:28;;;;;;;8.10;3.33;;;32.20;1.00;;;;;;6220392;28;20046;-79
2023/10/08 11:43:30;;;;;;;15.80;3.85;;;32.10;1.00;;;;;;6185467;28;20509;-80
2023/10/08 11:46:41;;;;;;;39.28;4.97;;;32.00;1.00;;;;;;6197356;28;20429;-81
2023/10/08 11:50:08;;;;;;;7.72;3.17;;;32.00;1.00;;;;;;6173388;28;20059;-80
2023/10/08 11:53:11;;;;;;;9.25;3.45;;;32.00;1.00;;;;;;6222208;28;20053;-81
2023/10/08 11:56:13;;;;;;;7.43;3.20;;;32.20;1.00;;;;;;6221296;28;20065;-80
2023/10/08 11:59:18;;;;;;;15.32;3.72;;;32.40;1.00;;;;;;6214591;28;20054;-81
2023/10/08 12:02:20;;;;;;;8.85;3.10;;;32.40;1.00;;;;;;6221596;28;20053;-80
2023/10/08 12:05:23;;;;;;;29.92;4.88;;;32.10;1.00;;;;;;6219208;28;20262;-80
2023/10/08 12:08:27;;;;;;;8.10;2.95;;;31.70;1.00;;;;;;6220960;28;20054;-79
2023/10/08 12:11:32;;;;;;;8.60;3.20;;;31.70;1.00;;;;;;6219543;28;20134;-79
2023/10/08 12:14:34;;;;;;;22.58;3.95;;;31.10;1.00;;;;;;6167638;28;20059;-80
2023/10/08 12:17:42;;;;;;;9.57;3.20;;;30.70;1.00;;;;;;6219775;28;20132;-79
2023/10/08 12:20:45;;;;;;;5.68;2.90;;;30.80;1.00;;;;;;6170839;28;20514;-79
2023/10/08 12:23:46;;;;;;;8.20;2.70;;;30.90;1.00;;;;;;6219834;28;20054;-78
2023/10/08 12:26:49;;;;;;;6.75;3.00;;;31.10;1.00;;;;;;6220273;28;20144;-78
2023/10/08 12:29:52;;;;;;;8.73;3.15;;;31.10;1.00;;;;;;6213730;28;20528;-79
2023/10/08 12:32:54;;;;;;;6.55;3.03;;;30.90;1.00;;;;;;6220300;28;20060;-79
2023/10/08 12:35:56;;;;;;;11.77;3.00;;;30.90;1.00;;;;;;6220272;28;20141;-79
2023/10/08 12:38:58;;;;;;;6.65;2.83;;;31.00;1.00;;;;;;6220012;28;20577;-78
2023/10/08 12:42:04;;;;;;;8.88;2.88;;;30.90;1.00;;;;;;6219779;28;20421;-79
2023/10/08 12:45:12;;;;;;;6.38;2.97;;;30.90;1.00;;;;;;6197116;28;20501;-77
2023/10/08 12:48:15;;;;;;;5.47;2.47;;;30.80;1.00;;;;;;6172090;28;20070;-80
2023/10/08 12:51:17;;;;;;;8.60;2.95;;;31.20;1.00;;;;;;6234051;28;20058;-78
2023/10/08 12:54:23;;;;;;;6.13;2.67;;;31.30;1.00;;;;;;6219954;28;20148;-79
2023/10/08 12:57:32;;;;;;;6.00;2.63;;;31.20;1.00;;;;;;6173123;28;20054;-79
2023/10/08 13:00:33;;;;;;;5.45;2.40;;;30.80;1.00;;;;;;6219770;28;20113;-78
2023/10/08 13:03:40;;;;;;;6.68;2.80;;;30.70;1.00;;;;;;6171292;28;20576;-78
2023/10/08 13:06:45;;;;;;;8.40;2.40;;;30.80;1.00;;;;;;6219403;28;20493;-79
2023/10/08 13:09:47;;;;;;;7.43;2.70;;;30.60;1.00;;;;;;6219348;28;20057;-79
2023/10/08 13:12:48;;;;;;;5.63;2.97;;;30.50;1.00;;;;;;6214378;28;20057;-79
2023/10/08 13:15:53;;;;;;;6.28;2.58;;;30.60;1.00;;;;;;6218320;28;20061;-79
2023/10/08 13:18:58;;;;;;;4.75;2.63;;;30.60;1.00;;;;;;6171172;28;20442;-79
2023/10/08 13:21:59;;;;;;;5.15;3.00;;;30.70;1.00;;;;;;6218713;28;20172;-79
2023/10/08 13:25:04;;;;;;;9.32;2.60;;;30.50;1.00;;;;;;6217747;28;20523;-78
2023/10/08 13:28:09;;;;;;;6.00;2.78;;;30.40;1.00;;;;;;6215303;28;20055;-77
2023/10/08 13:31:11;;;;;;;7.03;3.20;;;30.80;1.00;;;;;;6219694;28;20084;-78
2023/10/08 13:34:16;;;;;;;31.23;4.15;;;30.90;1.00;;;;;;6219081;28;20053;-78
2023/10/08 13:37:18;;;;;;;14.93;4.00;;;31.20;1.00;;;;;;6218780;28;20046;-78
2023/10/08 13:40:22;;;;;;;6.90;3.22;;;31.40;1.00;;;;;;6219096;28;20084;-79
2023/10/08 13:43:33;;;;;;;8.02;3.40;;;31.20;1.00;;;;;;6213232;28;20080;-78
2023/10/08 13:46:36;;;;;;;6.78;2.88;;;31.40;1.00;;;;;;6194914;28;20089;-78
2023/10/08 13:49:40;;;;;;;7.25;3.05;;;31.60;1.00;;;;;;6218759;28;20147;-78
2023/10/08 13:52:44;;;;;;;7.10;2.95;;;31.30;1.00;;;;;;6218956;28;20095;-79
2023/10/08 13:55:46;;;;;;;7.32;2.90;;;31.40;1.00;;;;;;6219419;28;20159;-78
2023/10/08 13:58:49;;;;;;;8.77;3.10;;;30.90;1.00;;;;;;6218388;28;20050;-78
2023/10/08 14:01:51;;;;;;;6.88;2.85;;;30.70;1.00;;;;;;6218533;28;20056;-78
2023/10/08 14:04:54;;;;;;;9.50;3.50;;;30.90;1.00;;;;;;6218766;28;20054;-78
2023/10/08 14:07:57;;;;;;;9.52;3.50;;;31.30;1.00;;;;;;6218310;28;20065;-77
2023/10/08 14:11:02;;;;;;;7.18;3.20;;;31.20;1.00;;;;;;6217093;28;20049;-78
2023/10/08 14:14:07;;;;;;;7.68;3.15;;;30.80;1.00;;;;;;6213223;28;20061;-78
2023/10/08 14:17:14;;;;;;;9.70;3.45;;;30.80;1.00;;;;;;6219066;28;20081;-77
2023/10/08 14:20:21;;;;;;;7.97;3.45;;;30.80;1.00;;;;;;6170583;28;20070;-78
2023/10/08 14:23:25;;;;;;;7.55;3.10;;;30.60;1.00;;;;;;6170089;28;20066;-77
2023/10/08 14:26:34;;;;;;;9.02;3.60;;;30.70;1.00;;;;;;6217830;28;20046;-77
2023/10/08 14:29:38;;;;;;;10.88;3.45;;;30.60;1.00;;;;;;6168376;28;20536;-78
2023/10/08 14:32:43;;;;;;;9.27;3.22;;;30.30;1.00;;;;;;6217602;28;20053;-76
2023/10/08 14:45:46;;;;;;;8.32;3.45;;;29.30;1.00;;;;;;6200196;28;20066;-77
2023/10/08 14:48:49;;;;;;;11.93;3.17;;;28.80;1.00;;;;;;6222875;28;20056;-77
2023/10/08 14:51:53;;;;;;;6.88;3.30;;;28.20;1.00;;;;;;6222644;28;20060;-76
2023/10/08 14:54:56;;;;;;;6.13;2.85;;;27.90;1.00;;;;;;6221431;28;20558;-77
2023/10/08 14:57:58;;;;;;;9.00;3.20;;;27.60;1.00;;;;;;6221574;28;20421;-76
2023/10/08 15:00:59;;;;;;;10.50;3.25;;;27.40;1.00;;;;;;6222338;28;20053;-77
2023/10/08 15:04:04;;;;;;;8.55;3.30;;;27.50;1.00;;;;;;6220962;28;20111;-77
2023/10/08 15:07:11;;;;;;;10.02;3.30;;;27.20;1.00;;;;;;6220869;28;20054;-78
2023/10/08 15:10:13;;;;;;;7.53;3.30;;;26.90;1.00;;;;;;6222013;28;20081;-78
2023/10/08 15:13:15;;;;;;;8.43;3.13;;;26.80;1.00;;;;;;6218248;28;20061;-77
2023/10/08 15:16:18;;;;;;;7.43;3.33;;;26.70;1.00;;;;;;6221985;28;20153;-77
2023/10/08 15:19:20;;;;;;;7.50;3.28;;;26.60;1.00;;;;;;6221870;28;20501;-76
2023/10/08 15:22:21;;;;;;;8.35;3.50;;;26.40;1.00;;;;;;6222217;28;20052;-77
2023/10/08 15:25:23;;;;;;;8.68;3.47;;;26.20;1.00;;;;;;6221815;28;20038;-76
2023/10/08 15:28:26;;;;;;;13.30;3.70;;;25.90;1.00;;;;;;6218078;28;20065;-76
2023/10/08 15:31:27;;;;;;;11.52;3.55;;;25.70;1.00;;;;;;6221486;28;20061;-76
2023/10/08 15:34:29;;;;;;;153.65;11.10;;;25.60;1.00;;;;;;6222127;28;20065;-76
2023/10/08 15:37:40;;;;;;;9.38;3.28;;;25.50;1.00;;;;;;6173206;28;20134;-76
2023/10/08 15:40:44;;;;;;;33.88;4.68;;;25.30;1.00;;;;;;6220364;28;20529;-75
2023/10/08 15:43:47;;;;;;;7.47;3.10;;;25.20;1.00;;;;;;6214106;28;20066;-76
2023/10/08 15:46:49;;;;;;;11.15;3.25;;;25.10;1.00;;;;;;6220678;28;20084;-77
2023/10/08 15:49:51;;;;;;;10.77;3.13;;;25.00;1.00;;;;;;6220926;28;20062;-76
2023/10/08 15:52:53;;;;;;;6.38;2.95;;;25.00;1.00;;;;;;6220310;28;20061;-76
2023/10/08 15:55:56;;;;;;;7.20;2.58;;;24.90;1.00;;;;;;6220841;28;20470;-76
2023/10/08 15:58:57;;;;;;;9.98;2.90;;;24.80;1.00;;;;;;6215459;28;20053;-77
2023/10/08 16:01:59;;;;;;;21.98;3.28;;;24.60;1.00;;;;;;6220689;28;20058;-76
2023/10/08 16:05:02;;;;;;;10.15;3.38;;;24.60;1.00;;;;;;6220479;28;20138;-76
2023/10/08 16:08:04;;;;;;;12.82;3.50;;;24.40;1.00;;;;;;6220918;28;20065;-76
2023/10/08 16:11:06;;;;;;;10.48;3.30;;;24.20;1.00;;;;;;6220646;28;20058;-76
2023/10/08 16:14:07;;;;;;;10.30;3.47;;;24.20;1.00;;;;;;6219400;28;20050;-76
2023/10/08 16:17:12;;;;;;;8.65;3.58;;;24.10;1.00;;;;;;6218384;28;20054;-76
2023/10/08 16:20:14;;;;;;;6.55;2.70;;;24.00;1.00;;;;;;6219732;28;20500;-76
2023/10/08 16:23:18;;;;;;;8.07;2.92;;;23.80;1.00;;;;;;6220048;28;20053;-75
2023/10/08 16:26:20;;;;;;;9.95;2.90;;;23.70;1.00;;;;;;6220665;28;20505;-76
2023/10/08 16:29:22;;;;;;;9.45;2.92;;;23.60;1.00;;;;;;6215765;28;20045;-77
2023/10/08 16:32:24;;;;;;;9.18;3.58;;;23.50;1.00;;;;;;6220032;28;20058;-76
2023/10/08 16:35:25;;;;;;;9.57;3.03;;;23.50;1.00;;;;;;6220251;28;20057;-76
2023/10/08 16:38:27;;;;;;;7.90;3.17;;;23.30;1.00;;;;;;6218516;28;20065;-76
2023/10/08 16:41:29;;;;;;;10.80;3.40;;;23.20;1.00;;;;;;6220013;28;20387;-76
2023/10/08 16:44:30;;;;;;;8.57;3.63;;;23.00;1.00;;;;;;6217408;28;20420;-76
2023/10/08 16:47:32;;;;;;;6.95;3.35;;;23.00;1.00;;;;;;6220079;28;20057;-77